createdAt,value
2018-07-17T00:02:10.399Z,58.47
2018-07-17T00:04:39.196Z,59.09
2018-07-17T00:07:08.017Z,58.41
2018-07-17T00:09:36.845Z,58.88
2018-07-17T00:12:05.766Z,59.57
2018-07-17T00:14:34.592Z,58.56
2018-07-17T00:17:03.560Z,58.55
2018-07-17T00:19:32.347Z,57.77
2018-07-17T00:22:01.471Z,57.33
2018-07-17T00:24:30.335Z,57.95
2018-07-17T00:26:59.230Z,57.31
2018-07-17T00:29:28.085Z,58.36
2018-07-17T00:31:56.893Z,58.71
2018-07-17T00:34:25.693Z,58.30
2018-07-17T00:36:54.480Z,58.23
2018-07-17T00:39:23.273Z,58.89
2018-07-17T00:41:52.099Z,58.96
2018-07-17T00:44:20.954Z,59.58
2018-07-17T00:46:49.749Z,59.50
2018-07-17T00:49:18.558Z,59.70
2018-07-17T00:51:47.309Z,60.01
2018-07-17T00:54:16.154Z,59.88
2018-07-17T00:56:44.946Z,58.98
2018-07-17T00:59:13.753Z,59.38
2018-07-17T01:01:47.610Z,58.96
2018-07-17T01:04:21.608Z,59.56
2018-07-17T01:06:55.515Z,58.67
2018-07-17T01:09:29.627Z,59.51
2018-07-17T01:12:03.594Z,59.32
2018-07-17T01:14:37.585Z,58.54
2018-07-17T01:17:06.434Z,58.27
2018-07-17T01:19:35.185Z,58.49
2018-07-17T01:22:04.017Z,59.91
2018-07-17T01:24:32.805Z,58.64
2018-07-17T01:27:01.552Z,58.63
2018-07-17T01:29:30.366Z,59.00
2018-07-17T01:31:59.118Z,59.86
2018-07-17T01:34:27.926Z,59.64
2018-07-17T01:36:59.669Z,59.64
2018-07-17T01:39:28.453Z,59.20
2018-07-17T01:41:57.309Z,60.35
2018-07-17T01:44:26.083Z,60.35
2018-07-17T01:46:59.416Z,59.91
2018-07-17T01:49:28.246Z,60.59
2018-07-17T01:51:57.046Z,60.12
2018-07-17T01:54:25.826Z,59.82
2018-07-17T01:56:54.608Z,60.56
2018-07-17T01:59:23.400Z,59.94
2018-07-17T02:01:52.194Z,60.25
2018-07-17T02:04:20.990Z,61.07
2018-07-17T02:06:49.793Z,60.47
2018-07-17T02:09:18.860Z,61.27
2018-07-17T02:11:47.610Z,60.39
2018-07-17T02:14:16.333Z,61.12
2018-07-17T02:16:45.133Z,60.61
2018-07-17T02:19:13.945Z,61.47
2018-07-17T02:21:42.706Z,61.21
2018-07-17T02:24:11.462Z,60.27
2018-07-17T02:26:40.270Z,60.45
2018-07-17T02:29:09.048Z,60.45
2018-07-17T02:31:37.869Z,60.51
2018-07-17T02:34:06.859Z,60.16
2018-07-17T02:36:35.652Z,60.74
2018-07-17T02:39:04.633Z,61.18
2018-07-17T02:41:33.402Z,61.49
2018-07-17T02:44:02.166Z,61.73
2018-07-17T02:46:30.923Z,62.86
2018-07-17T02:48:59.674Z,63.47
2018-07-17T02:51:28.465Z,63.48
2018-07-17T02:53:57.254Z,62.63
2018-07-17T02:56:26.122Z,62.35
2018-07-17T02:58:54.912Z,62.52
2018-07-17T03:01:23.701Z,63.71
2018-07-17T03:03:52.529Z,63.17
2018-07-17T03:06:21.301Z,63.89
2018-07-17T03:08:50.603Z,63.43
2018-07-17T03:11:19.389Z,63.52
2018-07-17T03:13:48.185Z,64.25
2018-07-17T03:16:16.963Z,64.33
2018-07-17T03:18:46.209Z,64.49
2018-07-17T03:21:14.995Z,63.71
2018-07-17T03:23:43.787Z,63.58
2018-07-17T03:26:12.582Z,64.29
2018-07-17T03:28:41.382Z,63.75
2018-07-17T03:31:10.126Z,63.73
2018-07-17T03:33:38.933Z,63.91
2018-07-17T03:36:07.681Z,64.30
2018-07-17T03:38:36.803Z,64.33
2018-07-17T03:41:05.773Z,64.06
2018-07-17T03:43:34.811Z,63.83
2018-07-17T03:46:03.583Z,63.45
2018-07-17T03:48:37.640Z,63.78
2018-07-17T03:51:09.574Z,63.20
2018-07-17T03:53:39.481Z,64.08
2018-07-17T03:56:08.362Z,63.63
2018-07-17T03:58:37.148Z,63.23
2018-07-17T04:01:06.073Z,63.58
2018-07-17T04:03:34.854Z,63.02
2018-07-17T04:06:03.874Z,63.01
2018-07-17T04:08:32.722Z,63.09
2018-07-17T04:11:01.603Z,63.90
2018-07-17T04:13:30.381Z,62.75
2018-07-17T04:15:59.803Z,63.19
2018-07-17T04:18:28.562Z,63.74
2018-07-17T04:20:57.432Z,62.83
2018-07-17T04:23:26.219Z,63.63
2018-07-17T04:25:55.081Z,63.69
2018-07-17T04:28:23.927Z,62.88
2018-07-17T04:30:52.935Z,62.40
2018-07-17T04:33:21.921Z,62.46
2018-07-17T04:35:50.842Z,62.48
2018-07-17T04:38:19.703Z,62.93
2018-07-17T04:40:48.816Z,62.58
2018-07-17T04:43:17.735Z,62.51
2018-07-17T04:45:46.520Z,61.50
2018-07-17T04:48:15.385Z,61.76
2018-07-17T04:50:44.277Z,61.55
2018-07-17T04:53:13.171Z,60.49
2018-07-17T04:55:41.967Z,60.26
2018-07-17T04:58:10.814Z,57.92
2018-07-17T05:00:39.610Z,56.16
2018-07-17T05:03:08.826Z,53.70
2018-07-17T05:05:37.565Z,51.13
2018-07-17T05:08:06.903Z,48.45
2018-07-17T05:10:35.667Z,46.24
2018-07-17T05:13:04.568Z,44.93
2018-07-17T05:15:33.566Z,43.34
2018-07-17T05:18:02.352Z,43.49
2018-07-17T05:20:31.156Z,41.72
2018-07-17T05:22:59.979Z,42.24
2018-07-17T05:25:28.991Z,42.20
2018-07-17T05:27:57.843Z,40.63
2018-07-17T05:30:26.743Z,41.30
2018-07-17T05:32:55.522Z,40.51
2018-07-17T05:35:24.415Z,39.61
2018-07-17T05:37:53.418Z,39.13
2018-07-17T05:40:22.194Z,40.39
2018-07-17T05:42:51.224Z,39.53
2018-07-17T05:45:20.035Z,40.99
2018-07-17T05:47:48.791Z,41.38
2018-07-17T05:50:17.725Z,40.62
2018-07-17T05:52:46.597Z,41.91
2018-07-17T05:55:15.406Z,40.96
2018-07-17T05:57:44.221Z,41.16
2018-07-17T06:00:13.143Z,42.51
2018-07-17T06:02:41.942Z,44.36
2018-07-17T06:05:17.053Z,43.39
2018-07-17T06:07:45.895Z,44.53
2018-07-17T06:10:15.760Z,44.81
2018-07-17T06:12:44.741Z,45.76
2018-07-17T06:15:13.902Z,45.78
2018-07-17T06:17:42.827Z,46.28
2018-07-17T06:20:11.659Z,46.58
2018-07-17T06:22:40.825Z,46.67
2018-07-17T06:25:10.591Z,46.25
2018-07-17T06:27:39.425Z,46.22
2018-07-17T06:30:09.240Z,46.54
2018-07-17T06:32:38.178Z,47.41
2018-07-17T06:35:07.460Z,46.99
2018-07-17T06:37:42.958Z,47.52
2018-07-17T06:40:11.735Z,46.08
2018-07-17T06:42:40.737Z,47.12
2018-07-17T06:45:09.567Z,45.90
2018-07-17T06:47:38.343Z,46.49
2018-07-17T06:50:07.250Z,47.07
2018-07-17T06:52:36.861Z,47.33
2018-07-17T06:55:05.726Z,48.50
2018-07-17T06:57:35.350Z,47.93
2018-07-17T07:00:05.614Z,49.45
2018-07-17T07:02:34.460Z,50.62
2018-07-17T07:05:03.362Z,50.01
2018-07-17T07:07:32.302Z,48.87
2018-07-17T07:10:01.346Z,48.48
2018-07-17T07:12:30.158Z,49.07
2018-07-17T07:14:58.969Z,48.68
2018-07-17T10:18:46.254Z,62.46
2018-07-17T10:21:15.098Z,61.52
2018-07-17T10:23:43.952Z,60.65
2018-07-17T10:26:12.771Z,59.62
2018-07-17T10:28:41.578Z,61.24
2018-07-17T10:31:10.398Z,60.24
2018-07-17T10:33:39.252Z,59.00
2018-07-17T10:36:08.064Z,57.63
2018-07-17T10:38:36.862Z,57.54
2018-07-17T10:41:06.706Z,57.40
2018-07-17T10:43:35.596Z,55.80
2018-07-17T10:46:06.613Z,56.51
2018-07-17T10:48:36.380Z,56.39
2018-07-17T10:51:05.481Z,56.11
2018-07-17T10:53:44.561Z,56.50
2018-07-17T10:56:13.356Z,55.70
2018-07-17T10:58:42.149Z,49.78
2018-07-17T11:01:10.994Z,49.18
2018-07-17T11:03:39.826Z,48.68
2018-07-17T11:06:08.671Z,48.26
2018-07-17T11:08:37.469Z,48.59
2018-07-17T11:11:06.888Z,49.64
2018-07-17T11:13:35.712Z,48.35
2018-07-17T11:16:04.886Z,47.65
2018-07-17T11:18:33.691Z,48.07
2018-07-17T11:21:02.595Z,47.84
2018-07-17T11:23:31.833Z,47.26
2018-07-17T11:26:00.678Z,46.91
2018-07-17T11:28:29.434Z,46.72
2018-07-17T11:30:58.898Z,46.02
2018-07-17T11:33:27.713Z,45.73
2018-07-17T11:35:56.519Z,45.70
2018-07-17T11:38:25.349Z,45.43
2018-07-17T11:40:54.629Z,46.93
2018-07-17T11:43:23.581Z,46.21
2018-07-17T11:45:52.585Z,44.88
2018-07-17T11:48:21.390Z,44.72
2018-07-17T11:50:50.229Z,45.33
2018-07-17T11:53:19.039Z,47.13
2018-07-17T11:55:48.083Z,47.06
2018-07-17T11:58:16.926Z,46.34
2018-07-17T12:00:45.818Z,48.20
2018-07-17T12:03:14.634Z,48.46
2018-07-17T12:05:43.420Z,48.19
2018-07-17T12:08:12.250Z,47.84
2018-07-17T12:10:41.083Z,47.27
2018-07-17T12:13:10.241Z,48.97
2018-07-17T12:15:39.004Z,48.17
2018-07-17T12:18:07.806Z,50.69
2018-07-17T12:20:36.869Z,50.88
2018-07-17T12:23:05.825Z,49.48
2018-07-17T12:25:34.637Z,49.69
2018-07-17T12:28:03.526Z,50.00
2018-07-17T12:30:32.496Z,51.66
2018-07-17T12:33:01.790Z,53.39
2018-07-17T12:35:30.701Z,53.88
2018-07-17T12:37:59.474Z,52.00
2018-07-17T12:40:28.282Z,54.15
2018-07-17T12:42:57.082Z,54.45
2018-07-17T12:45:25.904Z,54.87
2018-07-17T12:47:54.706Z,54.39
2018-07-17T12:50:23.601Z,53.00
2018-07-17T12:52:52.793Z,55.23
2018-07-17T12:55:21.596Z,53.59
2018-07-17T12:57:50.584Z,55.12
2018-07-17T13:00:19.413Z,56.10
2018-07-17T13:02:49.133Z,54.24
2018-07-17T13:05:18.185Z,55.34
2018-07-17T13:07:47.162Z,54.18
2018-07-17T13:10:15.970Z,53.26
2018-07-17T13:12:44.830Z,52.90
2018-07-17T13:15:13.694Z,51.66
2018-07-17T13:17:42.933Z,51.46
2018-07-17T13:20:11.865Z,50.70
2018-07-17T13:22:42.429Z,51.94
2018-07-17T13:25:12.010Z,51.20
2018-07-17T13:27:41.436Z,51.33
2018-07-17T13:30:11.493Z,52.64
2018-07-17T13:32:41.329Z,53.41
2018-07-17T13:35:11.113Z,53.71
2018-07-17T13:37:40.048Z,53.36
2018-07-17T13:40:09.608Z,54.52
2018-07-17T13:42:38.427Z,54.20
2018-07-17T13:45:12.115Z,55.99
2018-07-17T13:47:41.603Z,56.19
2018-07-17T13:50:10.803Z,56.69
2018-07-17T13:52:40.399Z,55.65
2018-07-17T13:55:09.946Z,55.76
2018-07-17T13:57:39.497Z,56.23
2018-07-17T14:00:08.886Z,55.43
2018-07-17T14:02:37.714Z,54.50
2018-07-17T14:05:07.134Z,54.84
2018-07-17T14:07:36.014Z,53.45
2018-07-17T14:10:05.048Z,53.76
2018-07-17T14:12:33.846Z,51.82
2018-07-17T14:15:02.816Z,51.62
2018-07-17T14:17:31.770Z,49.92
2018-07-17T14:20:00.734Z,50.28
2018-07-17T14:22:29.613Z,50.79
2018-07-17T14:24:58.397Z,51.04
2018-07-17T14:27:27.205Z,50.68
2018-07-17T14:29:56.038Z,50.21
2018-07-17T14:32:24.883Z,50.39
2018-07-17T14:34:53.778Z,50.67
2018-07-17T14:37:23.778Z,51.14
2018-07-17T14:39:52.590Z,50.93
2018-07-17T14:42:21.428Z,48.85
2018-07-17T14:44:50.268Z,45.90
2018-07-17T14:47:19.978Z,46.70
2018-07-17T14:49:48.834Z,45.10
2018-07-17T14:52:17.917Z,45.99
2018-07-17T14:54:46.780Z,46.12
2018-07-17T14:57:15.686Z,45.85
2018-07-17T14:59:44.654Z,44.44
2018-07-17T15:02:13.844Z,44.40
2018-07-17T15:04:42.646Z,45.20
2018-07-17T15:07:11.478Z,44.50
2018-07-17T15:09:40.340Z,42.54
2018-07-17T15:12:09.281Z,43.67
2018-07-17T15:14:38.015Z,43.79
2018-07-17T15:17:06.929Z,44.34
2018-07-17T15:19:36.387Z,44.67
2018-07-17T15:22:05.229Z,45.50
2018-07-17T15:24:34.011Z,45.00
2018-07-17T15:27:02.773Z,44.68
2018-07-17T15:29:31.719Z,45.87
2018-07-17T15:32:00.664Z,47.71
2018-07-17T15:34:29.581Z,48.23
2018-07-17T15:36:58.496Z,48.75
2018-07-17T15:39:27.359Z,49.70
2018-07-17T15:41:56.155Z,50.32
2018-07-17T15:44:25.035Z,50.73
2018-07-17T15:46:54.416Z,50.89
2018-07-17T15:49:23.325Z,51.97
2018-07-17T15:51:52.259Z,52.85
2018-07-17T15:54:21.158Z,53.56
2018-07-17T15:56:50.342Z,53.18
2018-07-17T15:59:19.134Z,54.00
2018-07-17T16:01:48.337Z,54.18
2018-07-17T16:04:17.170Z,54.53
2018-07-17T16:06:46.064Z,54.31
2018-07-17T16:09:14.944Z,54.58
2018-07-17T16:11:44.137Z,55.71
2018-07-17T16:14:13.419Z,56.27
2018-07-17T16:16:42.002Z,55.91
2018-07-17T16:19:11.773Z,56.22
2018-07-17T16:21:41.808Z,56.51
2018-07-17T16:24:10.673Z,57.16
2018-07-17T16:26:40.408Z,56.31
2018-07-17T16:29:09.354Z,56.63
2018-07-17T16:31:38.226Z,56.14
2018-07-17T16:34:08.042Z,56.74
2018-07-17T16:36:36.953Z,56.34
2018-07-17T16:39:08.029Z,55.21
2018-07-17T16:41:36.816Z,55.49
2018-07-17T16:44:05.617Z,56.36
2018-07-17T16:46:34.427Z,55.99
2018-07-17T16:49:03.280Z,55.86
2018-07-17T16:51:32.118Z,55.11
2018-07-17T16:54:00.981Z,54.42
2018-07-17T16:56:30.014Z,54.18
2018-07-17T16:58:58.892Z,54.93
2018-07-17T17:01:27.680Z,55.48
2018-07-17T17:03:56.468Z,56.94
2018-07-17T17:06:25.364Z,56.76
2018-07-17T17:08:54.234Z,57.53
2018-07-17T17:11:23.168Z,57.38
2018-07-17T17:13:51.996Z,57.33
2018-07-17T17:16:20.806Z,57.35
2018-07-17T17:18:49.649Z,57.34
2018-07-17T17:21:18.663Z,57.81
2018-07-17T17:23:47.497Z,57.57
2018-07-17T17:26:16.440Z,58.23
2018-07-17T17:28:45.276Z,58.86
2018-07-17T17:31:14.176Z,58.38
2018-07-17T17:33:42.994Z,59.41
2018-07-17T17:36:11.905Z,59.15
2018-07-17T17:38:40.824Z,59.80
2018-07-17T17:41:09.596Z,60.77
2018-07-17T17:43:38.373Z,60.70
2018-07-17T17:46:07.181Z,61.41
2018-07-17T17:48:36.021Z,61.48
2018-07-17T17:51:04.855Z,60.80
2018-07-17T17:53:33.708Z,61.47
2018-07-17T17:56:02.520Z,60.86
2018-07-17T17:58:31.331Z,61.03
2018-07-17T18:01:00.330Z,62.07
2018-07-17T18:03:29.189Z,61.30
2018-07-17T18:05:58.037Z,61.85
2018-07-17T18:08:26.806Z,62.62
2018-07-17T18:10:55.664Z,62.00
2018-07-17T18:13:24.454Z,62.06
2018-07-17T18:15:53.409Z,62.25
2018-07-17T18:18:22.212Z,62.68
2018-07-17T18:20:51.011Z,62.83
2018-07-17T18:23:19.955Z,63.34
2018-07-17T18:25:48.814Z,64.23
2018-07-17T18:28:17.706Z,63.56
2018-07-17T18:30:56.658Z,63.27
2018-07-17T18:33:25.608Z,64.04
2018-07-17T18:35:54.411Z,63.79
2018-07-17T18:38:23.284Z,63.75
2018-07-17T18:40:52.077Z,64.30
2018-07-17T18:43:20.901Z,64.82
2018-07-17T18:45:49.707Z,64.77
2018-07-17T18:48:18.548Z,65.35
2018-07-17T18:50:47.595Z,64.70
2018-07-17T18:53:16.415Z,64.94
2018-07-17T18:55:45.220Z,65.83
2018-07-17T18:58:14.075Z,66.51
2018-07-17T19:00:43.539Z,65.72
2018-07-17T19:03:12.846Z,66.42
2018-07-17T19:05:42.075Z,65.65
2018-07-17T19:08:11.314Z,64.92
2018-07-17T19:10:40.098Z,65.13
2018-07-17T19:13:08.882Z,64.51
2018-07-17T19:15:38.002Z,64.35
2018-07-17T19:18:06.779Z,62.94
2018-07-17T19:20:35.721Z,62.79
2018-07-17T19:23:04.576Z,62.56
2018-07-17T19:25:35.032Z,62.59
2018-07-17T19:28:03.864Z,62.52
2018-07-17T19:30:32.722Z,63.70
2018-07-17T19:33:01.517Z,63.15
2018-07-17T19:35:34.176Z,63.87
2018-07-17T19:38:03.392Z,64.00
2018-07-17T19:40:32.248Z,64.88
2018-07-17T19:43:01.227Z,65.57
2018-07-17T19:45:31.422Z,66.16
2018-07-17T19:48:00.324Z,65.80
2018-07-17T19:50:29.188Z,66.35
2018-07-17T19:52:58.058Z,65.56
2018-07-17T19:55:27.055Z,65.71
2018-07-17T19:57:55.946Z,65.04
2018-07-17T20:00:24.922Z,64.34
2018-07-17T20:02:53.771Z,64.29
2018-07-17T20:05:22.574Z,64.27
2018-07-17T20:07:51.360Z,64.79
2018-07-17T20:10:20.285Z,64.77
2018-07-17T20:12:49.089Z,64.55
2018-07-17T20:15:18.169Z,64.46
2018-07-17T20:17:47.440Z,65.11
2018-07-17T20:20:16.268Z,64.81
2018-07-17T20:22:45.229Z,64.55
2018-07-17T20:25:14.113Z,65.36
2018-07-17T20:27:42.974Z,64.50
2018-07-17T20:30:11.840Z,63.50
2018-07-17T20:32:40.687Z,63.56
2018-07-17T20:35:09.528Z,63.56
2018-07-17T20:37:38.417Z,63.68
2018-07-17T20:40:07.275Z,63.70
2018-07-17T20:42:36.075Z,64.40
2018-07-17T20:45:05.020Z,64.32
2018-07-17T20:47:33.879Z,64.24
2018-07-17T20:50:02.706Z,64.09
2018-07-17T20:52:31.596Z,63.08
2018-07-17T20:55:00.484Z,63.19
2018-07-17T20:57:29.729Z,63.41
2018-07-17T20:59:58.619Z,64.46
2018-07-17T21:02:27.477Z,63.77
2018-07-17T21:04:56.333Z,64.18
2018-07-17T21:07:25.331Z,64.07
2018-07-17T21:09:54.136Z,64.46
2018-07-17T21:12:22.988Z,64.16
2018-07-17T21:14:51.842Z,63.82
2018-07-17T21:17:20.777Z,63.88
2018-07-17T21:19:49.776Z,64.70
2018-07-17T21:22:18.578Z,65.16
2018-07-17T21:24:47.542Z,64.31
2018-07-17T21:27:16.377Z,64.33
2018-07-17T21:29:45.199Z,65.00
2018-07-17T21:32:14.029Z,64.46
2018-07-17T21:34:42.869Z,64.73
2018-07-17T21:37:12.680Z,65.41
2018-07-17T21:39:41.701Z,65.06
2018-07-17T21:42:10.593Z,65.77
2018-07-17T21:44:39.449Z,65.06
2018-07-17T21:47:08.276Z,65.04
2018-07-17T21:49:37.236Z,65.62
2018-07-17T21:52:06.229Z,65.52
2018-07-17T21:54:35.093Z,65.02
2018-07-17T21:57:03.923Z,65.39
2018-07-17T21:59:32.784Z,65.40
2018-07-17T22:02:01.671Z,65.68
2018-07-17T22:04:30.457Z,65.27
2018-07-17T22:06:59.503Z,66.18
2018-07-17T22:09:28.312Z,66.86
2018-07-17T22:11:57.201Z,67.33
2018-07-17T22:14:26.026Z,66.78
2018-07-17T22:16:54.838Z,67.75
2018-07-17T22:19:24.396Z,66.98
2018-07-17T22:21:53.264Z,67.28
2018-07-17T22:24:22.115Z,67.46
2018-07-17T22:26:50.952Z,68.15
2018-07-17T22:29:19.772Z,67.93
2018-07-17T22:31:48.635Z,68.81
2018-07-17T22:34:17.429Z,68.54
2018-07-17T22:36:46.242Z,68.79
2018-07-17T22:39:15.220Z,68.87
2018-07-17T22:41:44.032Z,68.76
2018-07-17T22:44:12.839Z,68.93
2018-07-17T22:46:41.712Z,68.41
2018-07-17T22:49:11.567Z,68.61
2018-07-17T22:51:40.776Z,68.74
2018-07-17T22:54:09.660Z,69.19
2018-07-17T22:56:38.507Z,69.17
2018-07-17T22:59:07.383Z,69.76
2018-07-17T23:01:36.208Z,68.79
2018-07-17T23:04:05.095Z,69.58
2018-07-17T23:06:33.876Z,69.93
2018-07-17T23:09:02.827Z,69.67
2018-07-17T23:11:31.633Z,69.90
2018-07-17T23:14:00.448Z,68.99
2018-07-17T23:16:29.270Z,69.87
2018-07-17T23:18:58.067Z,70.08
2018-07-17T23:21:26.928Z,69.82
2018-07-17T23:23:55.758Z,69.50
2018-07-17T23:26:24.617Z,69.53
2018-07-17T23:28:53.432Z,69.88
2018-07-17T23:31:22.249Z,71.01
2018-07-17T23:33:51.112Z,70.97
2018-07-17T23:36:19.940Z,70.36
2018-07-17T23:38:48.761Z,70.69
2018-07-17T23:41:17.613Z,70.37
2018-07-17T23:43:46.480Z,71.11
2018-07-17T23:46:15.342Z,71.33
2018-07-17T23:48:44.170Z,70.83
2018-07-17T23:51:12.966Z,70.17
2018-07-17T23:53:41.775Z,70.53
2018-07-17T23:56:10.938Z,71.03
2018-07-17T23:58:39.861Z,70.92
